Main page
METAR-TAF:

METAR-TAF

Airports :

Benbecula Airport

Benbecula, Scotland

latitude: 57-28N, longitude: 007-22W, elevation: 6 m

Current weather observation

The report was made 20 minutes ago, at 04:20 UTC
Wind 14 kt from the West/Southwest
Temperature 15°C
Humidity 100%
Pressure 1010 hPa
Visibility: 3900 m
light drizzle

METAR: EGPL 220420Z AUTO 25014KT 3900 -DZ OVC002/// 15/15 Q1010

Time: 05:40 (04:40 UTC)

Forecast

The report was made 1 hour and 33 minutes ago, at 03:07 UTC
Forecast valid from 22 at 03 UTC to 22 at 12 UTC
Wind 14 kt from the West/Southwest
Visibility 10 km or more
Overcast at a height of 500 ft
Temporary
from 22 at 03 UTC to 22 at 12 UTC
Visibility: 2000 m
Overcast at a height of 200 ft
rain, drizzle, mist
Probability 40% :
Temporary
from 22 at 03 UTC to 22 at 12 UTC
Visibility: 0600 m
Overcast at a height lower than 100 ft
fog

TAF: EGPL 220307Z 2203/2212 24014KT 9999 OVC005 TEMPO 2203/2212 2000 RADZ BR OVC002 PROB40 TEMPO 2203/2212 0600 FG OVC000

Weather observations and forecasts of more than 4000 airports (METAR and TAF reports).

The available stations are represented by yellow and red dots on the map.

Hover mouse over dot to see the name of the station.

Then click to see weather observations and forecasts.

To change the map : click on the green buttons with a black cross to zoom in, on the green button with a dash to zoom out, or on the green arrows for adjacent maps.


METAR-TAF: